sensor_id;sensor_type;location;lat;lon;timestamp;temperature;humidity
39099;DHT22;24844;52.380;7.018;2023-06-26T00:02:02;22.70;99.90
39099;DHT22;24844;52.380;7.018;2023-06-26T00:04:27;22.80;99.90
39099;DHT22;24844;52.380;7.018;2023-06-26T00:06:53;22.80;99.90
39099;DHT22;24844;52.380;7.018;2023-06-26T00:09:18;22.70;99.90
39099;DHT22;24844;52.380;7.018;2023-06-26T00:11:44;22.70;99.90
39099;DHT22;24844;52.380;7.018;2023-06-26T00:14:10;22.70;99.90
39099;DHT22;24844;52.380;7.018;2023-06-26T00:16:36;22.70;99.90
39099;DHT22;24844;52.380;7.018;2023-06-26T00:19:01;22.70;99.90
39099;DHT22;24844;52.380;7.018;2023-06-26T00:21:27;22.60;99.90
39099;DHT22;24844;52.380;7.018;2023-06-26T00:23:53;22.60;99.90
39099;DHT22;24844;52.380;7.018;2023-06-26T00:26:18;22.60;99.90
39099;DHT22;24844;52.380;7.018;2023-06-26T00:28:44;22.50;99.90
39099;DHT22;24844;52.380;7.018;2023-06-26T00:31:10;22.40;99.90
39099;DHT22;24844;52.380;7.018;2023-06-26T00:33:35;22.50;99.90
39099;DHT22;24844;52.380;7.018;2023-06-26T00:36:01;22.60;99.90
39099;DHT22;24844;52.380;7.018;2023-06-26T00:38:27;22.50;99.90
39099;DHT22;24844;52.380;7.018;2023-06-26T00:40:52;22.60;99.90
39099;DHT22;24844;52.380;7.018;2023-06-26T00:43:20;22.50;99.90
39099;DHT22;24844;52.380;7.018;2023-06-26T00:45:45;22.40;99.90
39099;DHT22;24844;52.380;7.018;2023-06-26T00:48:11;22.40;99.90
39099;DHT22;24844;52.380;7.018;2023-06-26T00:50:37;22.40;99.90
39099;DHT22;24844;52.380;7.018;2023-06-26T00:53:03;22.50;99.90
39099;DHT22;24844;52.380;7.018;2023-06-26T00:55:29;22.50;99.90
39099;DHT22;24844;52.380;7.018;2023-06-26T00:57:55;22.50;99.90
39099;DHT22;24844;52.380;7.018;2023-06-26T01:00:21;22.30;99.90
39099;DHT22;24844;52.380;7.018;2023-06-26T01:02:47;22.30;99.90
39099;DHT22;24844;52.380;7.018;2023-06-26T01:05:13;22.30;99.90
39099;DHT22;24844;52.380;7.018;2023-06-26T01:07:49;22.20;99.90
39099;DHT22;24844;52.380;7.018;2023-06-26T01:10:15;22.10;99.90
39099;DHT22;24844;52.380;7.018;2023-06-26T01:12:41;22.20;99.90
39099;DHT22;24844;52.380;7.018;2023-06-26T01:15:07;22.20;99.90
39099;DHT22;24844;52.380;7.018;2023-06-26T01:17:33;22.30;99.90
39099;DHT22;24844;52.380;7.018;2023-06-26T01:20:00;22.20;99.90
39099;DHT22;24844;52.380;7.018;2023-06-26T01:22:54;22.20;99.90
39099;DHT22;24844;52.380;7.018;2023-06-26T01:28:07;22.00;99.90
39099;DHT22;24844;52.380;7.018;2023-06-26T01:30:37;21.80;99.90
39099;DHT22;24844;52.380;7.018;2023-06-26T01:33:03;21.80;99.90
39099;DHT22;24844;52.380;7.018;2023-06-26T01:35:29;21.80;99.90
39099;DHT22;24844;52.380;7.018;2023-06-26T01:38:18;21.80;99.90
39099;DHT22;24844;52.380;7.018;2023-06-26T01:40:44;21.90;99.90
39099;DHT22;24844;52.380;7.018;2023-06-26T01:45:56;21.70;99.90
39099;DHT22;24844;52.380;7.018;2023-06-26T01:48:27;21.70;99.90
39099;DHT22;24844;52.380;7.018;2023-06-26T01:50:56;21.50;99.90
39099;DHT22;24844;52.380;7.018;2023-06-26T01:53:25;21.40;99.90
39099;DHT22;24844;52.380;7.018;2023-06-26T01:56:08;21.30;99.90
39099;DHT22;24844;52.380;7.018;2023-06-26T01:58:41;21.20;99.90
39099;DHT22;24844;52.380;7.018;2023-06-26T02:01:08;21.10;99.90
39099;DHT22;24844;52.380;7.018;2023-06-26T02:03:34;21.20;99.90
39099;DHT22;24844;52.380;7.018;2023-06-26T02:06:00;21.10;99.90
39099;DHT22;24844;52.380;7.018;2023-06-26T02:08:25;21.10;99.90
39099;DHT22;24844;52.380;7.018;2023-06-26T02:10:51;21.10;99.90
39099;DHT22;24844;52.380;7.018;2023-06-26T02:13:17;21.10;99.90
39099;DHT22;24844;52.380;7.018;2023-06-26T02:15:42;21.00;99.90
39099;DHT22;24844;52.380;7.018;2023-06-26T02:18:08;21.10;99.90
39099;DHT22;24844;52.380;7.018;2023-06-26T02:20:34;21.20;99.90
39099;DHT22;24844;52.380;7.018;2023-06-26T02:22:59;21.30;99.90
39099;DHT22;24844;52.380;7.018;2023-06-26T02:25:25;21.20;99.90
39099;DHT22;24844;52.380;7.018;2023-06-26T02:27:51;21.40;99.90
39099;DHT22;24844;52.380;7.018;2023-06-26T02:30:16;21.50;99.90
39099;DHT22;24844;52.380;7.018;2023-06-26T02:32:42;21.40;99.90
39099;DHT22;24844;52.380;7.018;2023-06-26T02:35:08;21.40;99.90
39099;DHT22;24844;52.380;7.018;2023-06-26T02:37:34;21.20;99.90
39099;DHT22;24844;52.380;7.018;2023-06-26T02:39:59;21.30;99.90
39099;DHT22;24844;52.380;7.018;2023-06-26T02:42:25;21.50;99.90
39099;DHT22;24844;52.380;7.018;2023-06-26T02:44:51;21.50;99.90
39099;DHT22;24844;52.380;7.018;2023-06-26T02:47:17;21.50;99.90
39099;DHT22;24844;52.380;7.018;2023-06-26T02:49:42;21.50;99.90
39099;DHT22;24844;52.380;7.018;2023-06-26T02:52:08;21.50;99.90
39099;DHT22;24844;52.380;7.018;2023-06-26T02:54:34;21.40;99.90
39099;DHT22;24844;52.380;7.018;2023-06-26T02:57:00;21.40;99.90
39099;DHT22;24844;52.380;7.018;2023-06-26T02:59:26;21.30;99.90
39099;DHT22;24844;52.380;7.018;2023-06-26T03:01:51;20.90;99.90
39099;DHT22;24844;52.380;7.018;2023-06-26T03:04:17;20.90;99.90
39099;DHT22;24844;52.380;7.018;2023-06-26T03:06:43;20.80;99.90
39099;DHT22;24844;52.380;7.018;2023-06-26T03:09:10;20.90;99.90
39099;DHT22;24844;52.380;7.018;2023-06-26T03:11:36;21.20;99.90
39099;DHT22;24844;52.380;7.018;2023-06-26T03:14:01;21.20;99.90
39099;DHT22;24844;52.380;7.018;2023-06-26T03:16:27;21.20;99.90
39099;DHT22;24844;52.380;7.018;2023-06-26T03:18:52;21.10;99.90
39099;DHT22;24844;52.380;7.018;2023-06-26T03:21:18;21.20;99.90
39099;DHT22;24844;52.380;7.018;2023-06-26T03:23:44;21.20;99.90
39099;DHT22;24844;52.380;7.018;2023-06-26T03:26:09;21.30;99.90
39099;DHT22;24844;52.380;7.018;2023-06-26T03:28:35;21.40;99.90
39099;DHT22;24844;52.380;7.018;2023-06-26T03:31:01;21.40;99.90
39099;DHT22;24844;52.380;7.018;2023-06-26T03:33:26;21.40;99.90
39099;DHT22;24844;52.380;7.018;2023-06-26T03:35:52;21.40;99.90
39099;DHT22;24844;52.380;7.018;2023-06-26T03:38:17;21.40;99.90
39099;DHT22;24844;52.380;7.018;2023-06-26T03:40:43;21.40;99.90
39099;DHT22;24844;52.380;7.018;2023-06-26T03:43:09;21.30;99.90
39099;DHT22;24844;52.380;7.018;2023-06-26T03:45:34;21.50;99.90
39099;DHT22;24844;52.380;7.018;2023-06-26T03:48:00;21.50;99.90
39099;DHT22;24844;52.380;7.018;2023-06-26T03:50:26;21.60;99.90
39099;DHT22;24844;52.380;7.018;2023-06-26T03:52:51;21.70;99.90
39099;DHT22;24844;52.380;7.018;2023-06-26T03:55:18;21.90;99.90
39099;DHT22;24844;52.380;7.018;2023-06-26T03:57:44;22.00;99.90
39099;DHT22;24844;52.380;7.018;2023-06-26T04:00:10;22.20;99.90
39099;DHT22;24844;52.380;7.018;2023-06-26T04:02:39;22.50;99.90
39099;DHT22;24844;52.380;7.018;2023-06-26T04:05:05;22.60;99.90
39099;DHT22;24844;52.380;7.018;2023-06-26T04:07:31;22.70;99.90
39099;DHT22;24844;52.380;7.018;2023-06-26T04:09:57;22.80;99.90
39099;DHT22;24844;52.380;7.018;2023-06-26T04:12:22;22.80;99.90
39099;DHT22;24844;52.380;7.018;2023-06-26T04:14:48;23.10;99.90
39099;DHT22;24844;52.380;7.018;2023-06-26T04:17:14;23.40;99.90
39099;DHT22;24844;52.380;7.018;2023-06-26T04:19:39;23.40;99.90
39099;DHT22;24844;52.380;7.018;2023-06-26T04:22:05;23.70;99.90
39099;DHT22;24844;52.380;7.018;2023-06-26T04:24:31;24.00;99.90
39099;DHT22;24844;52.380;7.018;2023-06-26T04:26:57;24.10;99.90
39099;DHT22;24844;52.380;7.018;2023-06-26T04:29:23;24.30;99.90
39099;DHT22;24844;52.380;7.018;2023-06-26T04:31:53;24.40;99.90
39099;DHT22;24844;52.380;7.018;2023-06-26T04:34:31;24.60;99.90
39099;DHT22;24844;52.380;7.018;2023-06-26T04:36:59;24.80;99.90
39099;DHT22;24844;52.380;7.018;2023-06-26T04:39:25;24.80;99.90
39099;DHT22;24844;52.380;7.018;2023-06-26T04:41:51;25.20;99.90
39099;DHT22;24844;52.380;7.018;2023-06-26T04:44:16;25.30;99.90
39099;DHT22;24844;52.380;7.018;2023-06-26T04:46:42;25.40;99.90
39099;DHT22;24844;52.380;7.018;2023-06-26T04:49:10;25.30;99.90
39099;DHT22;24844;52.380;7.018;2023-06-26T04:51:36;25.40;99.90
39099;DHT22;24844;52.380;7.018;2023-06-26T04:54:09;25.60;99.90
39099;DHT22;24844;52.380;7.018;2023-06-26T04:56:35;25.60;99.90
39099;DHT22;24844;52.380;7.018;2023-06-26T04:59:01;25.70;99.90
39099;DHT22;24844;52.380;7.018;2023-06-26T05:01:27;25.90;99.90
39099;DHT22;24844;52.380;7.018;2023-06-26T05:03:58;25.80;99.90
39099;DHT22;24844;52.380;7.018;2023-06-26T05:06:24;26.10;99.90
39099;DHT22;24844;52.380;7.018;2023-06-26T05:08:49;26.20;99.90
39099;DHT22;24844;52.380;7.018;2023-06-26T05:11:15;26.00;99.90
39099;DHT22;24844;52.380;7.018;2023-06-26T05:13:41;26.50;99.90
39099;DHT22;24844;52.380;7.018;2023-06-26T05:16:08;26.30;99.90
39099;DHT22;24844;52.380;7.018;2023-06-26T05:18:34;26.00;99.90
39099;DHT22;24844;52.380;7.018;2023-06-26T05:21:01;26.30;99.90
39099;DHT22;24844;52.380;7.018;2023-06-26T05:23:27;26.50;99.90
39099;DHT22;24844;52.380;7.018;2023-06-26T05:25:54;26.60;99.60
39099;DHT22;24844;52.380;7.018;2023-06-26T05:28:20;26.60;99.80
39099;DHT22;24844;52.380;7.018;2023-06-26T05:30:46;26.70;99.40
39099;DHT22;24844;52.380;7.018;2023-06-26T05:33:14;26.40;99.90
39099;DHT22;24844;52.380;7.018;2023-06-26T05:35:45;26.60;99.40
39099;DHT22;24844;52.380;7.018;2023-06-26T05:38:11;26.50;99.70
39099;DHT22;24844;52.380;7.018;2023-06-26T05:40:39;26.50;99.50
39099;DHT22;24844;52.380;7.018;2023-06-26T05:43:06;26.40;99.40
39099;DHT22;24844;52.380;7.018;2023-06-26T05:45:32;26.60;99.10
39099;DHT22;24844;52.380;7.018;2023-06-26T05:47:57;25.90;99.90
39099;DHT22;24844;52.380;7.018;2023-06-26T05:50:23;25.50;99.90
39099;DHT22;24844;52.380;7.018;2023-06-26T05:52:49;25.60;99.90
39099;DHT22;24844;52.380;7.018;2023-06-26T05:55:15;25.10;99.90
39099;DHT22;24844;52.380;7.018;2023-06-26T05:57:42;24.80;99.90
39099;DHT22;24844;52.380;7.018;2023-06-26T06:00:08;24.60;99.90
39099;DHT22;24844;52.380;7.018;2023-06-26T06:02:38;24.70;99.90
39099;DHT22;24844;52.380;7.018;2023-06-26T06:05:04;25.00;99.90
39099;DHT22;24844;52.380;7.018;2023-06-26T06:07:32;24.80;99.90
39099;DHT22;24844;52.380;7.018;2023-06-26T06:09:58;24.30;99.90
39099;DHT22;24844;52.380;7.018;2023-06-26T06:12:24;24.30;99.90
39099;DHT22;24844;52.380;7.018;2023-06-26T06:14:49;24.30;99.90
39099;DHT22;24844;52.380;7.018;2023-06-26T06:17:15;24.10;99.90
39099;DHT22;24844;52.380;7.018;2023-06-26T06:19:41;23.70;99.90
39099;DHT22;24844;52.380;7.018;2023-06-26T06:22:06;23.70;99.90
39099;DHT22;24844;52.380;7.018;2023-06-26T06:24:32;23.50;99.90
39099;DHT22;24844;52.380;7.018;2023-06-26T06:26:57;23.40;99.90
39099;DHT22;24844;52.380;7.018;2023-06-26T06:29:23;23.50;99.90
39099;DHT22;24844;52.380;7.018;2023-06-26T06:31:48;23.50;99.90
39099;DHT22;24844;52.380;7.018;2023-06-26T06:34:14;24.10;99.90
39099;DHT22;24844;52.380;7.018;2023-06-26T06:36:40;24.90;99.90
39099;DHT22;24844;52.380;7.018;2023-06-26T06:39:05;25.60;99.90
39099;DHT22;24844;52.380;7.018;2023-06-26T06:41:31;26.20;99.90
39099;DHT22;24844;52.380;7.018;2023-06-26T06:43:56;26.70;99.90
39099;DHT22;24844;52.380;7.018;2023-06-26T06:46:22;27.60;99.90
39099;DHT22;24844;52.380;7.018;2023-06-26T06:48:49;27.90;99.00
39099;DHT22;24844;52.380;7.018;2023-06-26T06:51:14;27.80;99.20
39099;DHT22;24844;52.380;7.018;2023-06-26T06:53:40;27.60;99.20
39099;DHT22;24844;52.380;7.018;2023-06-26T06:56:05;27.50;99.30
39099;DHT22;24844;52.380;7.018;2023-06-26T06:58:31;27.20;99.30
39099;DHT22;24844;52.380;7.018;2023-06-26T07:00:59;26.30;99.90
39099;DHT22;24844;52.380;7.018;2023-06-26T07:03:25;26.60;99.90
39099;DHT22;24844;52.380;7.018;2023-06-26T07:05:50;26.70;99.90
39099;DHT22;24844;52.380;7.018;2023-06-26T07:08:16;26.80;99.80
39099;DHT22;24844;52.380;7.018;2023-06-26T07:10:42;26.90;99.90
39099;DHT22;24844;52.380;7.018;2023-06-26T07:13:07;27.30;99.40
39099;DHT22;24844;52.380;7.018;2023-06-26T07:15:33;27.70;98.60
39099;DHT22;24844;52.380;7.018;2023-06-26T07:17:59;28.50;97.50
39099;DHT22;24844;52.380;7.018;2023-06-26T07:20:25;28.90;96.70
39099;DHT22;24844;52.380;7.018;2023-06-26T07:22:50;29.40;96.10
39099;DHT22;24844;52.380;7.018;2023-06-26T07:25:16;29.80;95.50
39099;DHT22;24844;52.380;7.018;2023-06-26T07:27:42;30.50;94.80
39099;DHT22;24844;52.380;7.018;2023-06-26T07:30:09;30.60;93.40
39099;DHT22;24844;52.380;7.018;2023-06-26T07:32:35;31.10;93.30
39099;DHT22;24844;52.380;7.018;2023-06-26T07:35:01;31.10;92.80
39099;DHT22;24844;52.380;7.018;2023-06-26T07:37:26;31.50;92.50
39099;DHT22;24844;52.380;7.018;2023-06-26T07:39:52;31.90;92.20
39099;DHT22;24844;52.380;7.018;2023-06-26T07:42:18;32.40;91.70
39099;DHT22;24844;52.380;7.018;2023-06-26T07:44:43;31.60;91.50
39099;DHT22;24844;52.380;7.018;2023-06-26T07:47:10;31.30;91.70
39099;DHT22;24844;52.380;7.018;2023-06-26T07:49:36;31.30;91.80
39099;DHT22;24844;52.380;7.018;2023-06-26T07:52:02;30.80;92.40
39099;DHT22;24844;52.380;7.018;2023-06-26T07:54:27;30.70;92.50
39099;DHT22;24844;52.380;7.018;2023-06-26T07:56:59;30.10;93.20
39099;DHT22;24844;52.380;7.018;2023-06-26T07:59:27;30.20;93.10
39099;DHT22;24844;52.380;7.018;2023-06-26T08:01:54;30.00;90.50
39099;DHT22;24844;52.380;7.018;2023-06-26T08:04:23;29.90;89.80
39099;DHT22;24844;52.380;7.018;2023-06-26T08:06:51;30.60;87.20
39099;DHT22;24844;52.380;7.018;2023-06-26T08:09:18;31.30;86.20
39099;DHT22;24844;52.380;7.018;2023-06-26T08:11:45;31.90;84.90
39099;DHT22;24844;52.380;7.018;2023-06-26T08:14:10;32.40;83.50
39099;DHT22;24844;52.380;7.018;2023-06-26T08:16:43;33.50;82.70
39099;DHT22;24844;52.380;7.018;2023-06-26T08:19:12;34.20;80.60
39099;DHT22;24844;52.380;7.018;2023-06-26T08:21:39;33.70;79.40
39099;DHT22;24844;52.380;7.018;2023-06-26T08:24:04;34.60;77.80
39099;DHT22;24844;52.380;7.018;2023-06-26T08:26:30;35.10;76.80
39099;DHT22;24844;52.380;7.018;2023-06-26T08:28:55;35.70;74.50
39099;DHT22;24844;52.380;7.018;2023-06-26T08:31:21;35.70;74.40
39099;DHT22;24844;52.380;7.018;2023-06-26T08:33:47;36.40;74.20
39099;DHT22;24844;52.380;7.018;2023-06-26T08:36:13;36.20;72.10
39099;DHT22;24844;52.380;7.018;2023-06-26T08:38:39;36.00;72.00
39099;DHT22;24844;52.380;7.018;2023-06-26T08:41:07;34.80;71.90
39099;DHT22;24844;52.380;7.018;2023-06-26T08:43:34;34.00;73.00
39099;DHT22;24844;52.380;7.018;2023-06-26T08:46:00;34.30;73.90
39099;DHT22;24844;52.380;7.018;2023-06-26T08:48:26;35.00;71.50
39099;DHT22;24844;52.380;7.018;2023-06-26T08:50:54;35.00;70.70
39099;DHT22;24844;52.380;7.018;2023-06-26T08:53:29;35.10;69.30
39099;DHT22;24844;52.380;7.018;2023-06-26T08:55:59;33.90;70.50
39099;DHT22;24844;52.380;7.018;2023-06-26T08:58:25;33.40;71.80
39099;DHT22;24844;52.380;7.018;2023-06-26T09:00:51;33.70;71.90
39099;DHT22;24844;52.380;7.018;2023-06-26T09:03:17;34.20;71.40
39099;DHT22;24844;52.380;7.018;2023-06-26T09:05:43;34.10;70.90
39099;DHT22;24844;52.380;7.018;2023-06-26T09:08:09;34.30;69.80
39099;DHT22;24844;52.380;7.018;2023-06-26T09:10:36;33.80;70.80
39099;DHT22;24844;52.380;7.018;2023-06-26T09:13:02;33.80;71.40
39099;DHT22;24844;52.380;7.018;2023-06-26T09:15:43;34.50;70.40
39099;DHT22;24844;52.380;7.018;2023-06-26T09:18:09;35.00;69.30
39099;DHT22;24844;52.380;7.018;2023-06-26T09:20:35;35.30;68.20
39099;DHT22;24844;52.380;7.018;2023-06-26T09:23:01;34.80;68.20
39099;DHT22;24844;52.380;7.018;2023-06-26T09:25:28;33.80;68.60
39099;DHT22;24844;52.380;7.018;2023-06-26T09:27:55;33.10;68.70
39099;DHT22;24844;52.380;7.018;2023-06-26T09:30:21;33.30;69.20
39099;DHT22;24844;52.380;7.018;2023-06-26T09:32:47;33.00;70.10
39099;DHT22;24844;52.380;7.018;2023-06-26T09:35:15;33.80;70.00
39099;DHT22;24844;52.380;7.018;2023-06-26T09:37:40;33.90;68.70
39099;DHT22;24844;52.380;7.018;2023-06-26T09:40:07;33.50;68.90
39099;DHT22;24844;52.380;7.018;2023-06-26T09:42:33;33.10;69.10
39099;DHT22;24844;52.380;7.018;2023-06-26T09:44:59;31.70;70.00
39099;DHT22;24844;52.380;7.018;2023-06-26T09:47:25;31.00;71.10
39099;DHT22;24844;52.380;7.018;2023-06-26T09:49:51;30.70;71.70
39099;DHT22;24844;52.380;7.018;2023-06-26T09:52:20;30.20;72.70
39099;DHT22;24844;52.380;7.018;2023-06-26T09:54:47;31.00;73.80
39099;DHT22;24844;52.380;7.018;2023-06-26T09:57:17;32.30;72.90
39099;DHT22;24844;52.380;7.018;2023-06-26T09:59:44;33.50;70.80
39099;DHT22;24844;52.380;7.018;2023-06-26T10:02:10;33.90;68.90
39099;DHT22;24844;52.380;7.018;2023-06-26T10:04:37;34.30;67.80
39099;DHT22;24844;52.380;7.018;2023-06-26T10:07:22;33.90;67.00
39099;DHT22;24844;52.380;7.018;2023-06-26T10:09:49;33.50;67.70
39099;DHT22;24844;52.380;7.018;2023-06-26T10:12:26;33.10;68.60
39099;DHT22;24844;52.380;7.018;2023-06-26T10:14:53;32.60;68.20
39099;DHT22;24844;52.380;7.018;2023-06-26T10:17:21;32.80;69.40
39099;DHT22;24844;52.380;7.018;2023-06-26T10:19:51;33.90;67.80
39099;DHT22;24844;52.380;7.018;2023-06-26T10:22:20;34.50;65.80
39099;DHT22;24844;52.380;7.018;2023-06-26T10:24:47;34.90;65.50
39099;DHT22;24844;52.380;7.018;2023-06-26T10:27:19;34.70;66.20
39099;DHT22;24844;52.380;7.018;2023-06-26T10:29:55;35.20;64.00
39099;DHT22;24844;52.380;7.018;2023-06-26T10:32:23;33.40;65.40
39099;DHT22;24844;52.380;7.018;2023-06-26T10:34:50;33.10;67.10
39099;DHT22;24844;52.380;7.018;2023-06-26T10:37:16;32.20;67.30
39099;DHT22;24844;52.380;7.018;2023-06-26T10:39:46;32.00;68.20
39099;DHT22;24844;52.380;7.018;2023-06-26T10:42:28;31.30;67.60
39099;DHT22;24844;52.380;7.018;2023-06-26T10:45:09;30.20;68.00
39099;DHT22;24844;52.380;7.018;2023-06-26T10:47:37;30.10;68.90
39099;DHT22;24844;52.380;7.018;2023-06-26T10:52:46;30.20;70.80
39099;DHT22;24844;52.380;7.018;2023-06-26T10:55:31;29.90;71.10
39099;DHT22;24844;52.380;7.018;2023-06-26T10:57:57;30.40;70.80
39099;DHT22;24844;52.380;7.018;2023-06-26T11:00:23;30.90;70.30
39099;DHT22;24844;52.380;7.018;2023-06-26T11:02:53;30.60;68.60
39099;DHT22;24844;52.380;7.018;2023-06-26T11:05:32;30.40;67.50
39099;DHT22;24844;52.380;7.018;2023-06-26T11:08:06;29.30;67.70
39099;DHT22;24844;52.380;7.018;2023-06-26T11:10:53;28.90;69.50
39099;DHT22;24844;52.380;7.018;2023-06-26T11:13:19;28.60;69.40
39099;DHT22;24844;52.380;7.018;2023-06-26T11:15:46;28.60;70.20
39099;DHT22;24844;52.380;7.018;2023-06-26T11:18:13;28.60;70.90
39099;DHT22;24844;52.380;7.018;2023-06-26T11:20:39;28.30;71.20
39099;DHT22;24844;52.380;7.018;2023-06-26T11:23:04;28.30;71.20
39099;DHT22;24844;52.380;7.018;2023-06-26T11:25:38;28.30;72.90
39099;DHT22;24844;52.380;7.018;2023-06-26T11:28:04;28.20;71.30
39099;DHT22;24844;52.380;7.018;2023-06-26T11:30:31;28.20;74.10
39099;DHT22;24844;52.380;7.018;2023-06-26T11:33:07;28.00;72.80
39099;DHT22;24844;52.380;7.018;2023-06-26T11:35:33;27.50;71.80
39099;DHT22;24844;52.380;7.018;2023-06-26T11:38:01;27.50;75.40
39099;DHT22;24844;52.380;7.018;2023-06-26T11:40:32;27.60;72.20
39099;DHT22;24844;52.380;7.018;2023-06-26T11:42:59;27.30;70.50
39099;DHT22;24844;52.380;7.018;2023-06-26T11:45:29;27.40;71.60
39099;DHT22;24844;52.380;7.018;2023-06-26T11:47:56;27.40;71.10
39099;DHT22;24844;52.380;7.018;2023-06-26T11:50:22;27.80;70.20
39099;DHT22;24844;52.380;7.018;2023-06-26T11:52:58;27.50;70.40
39099;DHT22;24844;52.380;7.018;2023-06-26T11:55:25;27.50;69.40
39099;DHT22;24844;52.380;7.018;2023-06-26T11:57:55;27.00;67.90
39099;DHT22;24844;52.380;7.018;2023-06-26T12:00:22;27.10;67.30
39099;DHT22;24844;52.380;7.018;2023-06-26T12:02:48;26.80;68.50
39099;DHT22;24844;52.380;7.018;2023-06-26T12:05:16;27.10;68.00
39099;DHT22;24844;52.380;7.018;2023-06-26T12:07:43;27.10;67.10
39099;DHT22;24844;52.380;7.018;2023-06-26T12:10:13;27.10;65.90
39099;DHT22;24844;52.380;7.018;2023-06-26T12:12:40;27.40;66.20
39099;DHT22;24844;52.380;7.018;2023-06-26T12:15:07;27.20;66.30
39099;DHT22;24844;52.380;7.018;2023-06-26T12:17:37;27.80;65.90
39099;DHT22;24844;52.380;7.018;2023-06-26T12:20:05;27.80;67.30
39099;DHT22;24844;52.380;7.018;2023-06-26T12:22:34;27.80;67.50
39099;DHT22;24844;52.380;7.018;2023-06-26T12:25:01;27.60;66.30
39099;DHT22;24844;52.380;7.018;2023-06-26T12:27:27;27.20;63.20
39099;DHT22;24844;52.380;7.018;2023-06-26T12:29:54;27.00;62.90
39099;DHT22;24844;52.380;7.018;2023-06-26T12:32:24;27.00;64.30
39099;DHT22;24844;52.380;7.018;2023-06-26T12:34:51;27.20;63.70
39099;DHT22;24844;52.380;7.018;2023-06-26T12:37:18;27.00;66.80
39099;DHT22;24844;52.380;7.018;2023-06-26T12:39:56;27.10;68.50
39099;DHT22;24844;52.380;7.018;2023-06-26T12:42:28;26.90;67.90
39099;DHT22;24844;52.380;7.018;2023-06-26T12:44:54;26.70;66.60
39099;DHT22;24844;52.380;7.018;2023-06-26T12:47:28;26.60;67.20
39099;DHT22;24844;52.380;7.018;2023-06-26T12:49:56;26.70;67.20
39099;DHT22;24844;52.380;7.018;2023-06-26T12:52:23;26.70;66.40
39099;DHT22;24844;52.380;7.018;2023-06-26T12:54:53;26.50;69.90
39099;DHT22;24844;52.380;7.018;2023-06-26T12:57:19;26.70;69.60
39099;DHT22;24844;52.380;7.018;2023-06-26T12:59:45;26.90;68.60
39099;DHT22;24844;52.380;7.018;2023-06-26T13:02:11;27.10;67.90
39099;DHT22;24844;52.380;7.018;2023-06-26T13:04:37;27.30;65.00
39099;DHT22;24844;52.380;7.018;2023-06-26T13:07:05;26.90;65.30
39099;DHT22;24844;52.380;7.018;2023-06-26T13:09:33;26.80;66.90
39099;DHT22;24844;52.380;7.018;2023-06-26T13:11:59;26.70;64.90
39099;DHT22;24844;52.380;7.018;2023-06-26T13:14:24;26.50;65.60
39099;DHT22;24844;52.380;7.018;2023-06-26T13:16:50;26.90;66.20
39099;DHT22;24844;52.380;7.018;2023-06-26T13:19:16;27.00;66.00
39099;DHT22;24844;52.380;7.018;2023-06-26T13:21:42;27.00;66.90
39099;DHT22;24844;52.380;7.018;2023-06-26T13:24:07;27.00;66.70
39099;DHT22;24844;52.380;7.018;2023-06-26T13:26:33;26.90;67.00
39099;DHT22;24844;52.380;7.018;2023-06-26T13:28:59;27.30;66.90
39099;DHT22;24844;52.380;7.018;2023-06-26T13:31:25;26.90;65.70
39099;DHT22;24844;52.380;7.018;2023-06-26T13:33:51;26.50;65.00
39099;DHT22;24844;52.380;7.018;2023-06-26T13:36:19;26.60;64.80
39099;DHT22;24844;52.380;7.018;2023-06-26T13:38:45;26.60;65.40
39099;DHT22;24844;52.380;7.018;2023-06-26T13:41:11;26.60;68.00
39099;DHT22;24844;52.380;7.018;2023-06-26T13:43:36;26.50;68.10
39099;DHT22;24844;52.380;7.018;2023-06-26T13:46:03;26.40;67.30
39099;DHT22;24844;52.380;7.018;2023-06-26T13:48:28;26.10;68.90
39099;DHT22;24844;52.380;7.018;2023-06-26T13:50:54;25.80;67.90
39099;DHT22;24844;52.380;7.018;2023-06-26T13:53:21;26.10;67.10
39099;DHT22;24844;52.380;7.018;2023-06-26T13:55:48;26.40;67.20
39099;DHT22;24844;52.380;7.018;2023-06-26T13:58:14;26.60;66.20
39099;DHT22;24844;52.380;7.018;2023-06-26T14:00:40;26.20;66.40
39099;DHT22;24844;52.380;7.018;2023-06-26T14:03:06;26.60;65.10
39099;DHT22;24844;52.380;7.018;2023-06-26T14:05:33;26.50;64.70
39099;DHT22;24844;52.380;7.018;2023-06-26T14:07:59;25.80;64.80
39099;DHT22;24844;52.380;7.018;2023-06-26T14:10:25;25.60;66.00
39099;DHT22;24844;52.380;7.018;2023-06-26T14:12:51;25.80;67.60
39099;DHT22;24844;52.380;7.018;2023-06-26T14:15:16;25.80;66.90
39099;DHT22;24844;52.380;7.018;2023-06-26T14:17:42;25.80;67.90
39099;DHT22;24844;52.380;7.018;2023-06-26T14:20:09;25.60;66.80
39099;DHT22;24844;52.380;7.018;2023-06-26T14:22:41;25.50;67.50
39099;DHT22;24844;52.380;7.018;2023-06-26T14:25:08;25.20;67.60
39099;DHT22;24844;52.380;7.018;2023-06-26T14:27:35;25.10;67.90
39099;DHT22;24844;52.380;7.018;2023-06-26T14:30:01;25.10;68.90
39099;DHT22;24844;52.380;7.018;2023-06-26T14:32:27;25.10;68.30
39099;DHT22;24844;52.380;7.018;2023-06-26T14:34:52;25.30;68.80
39099;DHT22;24844;52.380;7.018;2023-06-26T14:37:18;25.70;68.80
39099;DHT22;24844;52.380;7.018;2023-06-26T14:39:45;25.50;69.30
39099;DHT22;24844;52.380;7.018;2023-06-26T14:42:10;25.90;67.40
39099;DHT22;24844;52.380;7.018;2023-06-26T14:44:36;25.50;68.70
39099;DHT22;24844;52.380;7.018;2023-06-26T14:47:03;25.30;68.20
39099;DHT22;24844;52.380;7.018;2023-06-26T14:49:38;25.10;68.50
39099;DHT22;24844;52.380;7.018;2023-06-26T14:52:04;25.30;69.40
39099;DHT22;24844;52.380;7.018;2023-06-26T14:54:30;25.20;70.10
39099;DHT22;24844;52.380;7.018;2023-06-26T14:56:55;25.20;70.80
39099;DHT22;24844;52.380;7.018;2023-06-26T14:59:21;25.30;72.00
39099;DHT22;24844;52.380;7.018;2023-06-26T15:01:46;25.40;67.60
39099;DHT22;24844;52.380;7.018;2023-06-26T15:04:12;25.40;68.70
39099;DHT22;24844;52.380;7.018;2023-06-26T15:06:38;25.20;68.00
39099;DHT22;24844;52.380;7.018;2023-06-26T15:09:04;25.20;69.20
39099;DHT22;24844;52.380;7.018;2023-06-26T15:11:31;25.00;70.70
39099;DHT22;24844;52.380;7.018;2023-06-26T15:13:57;24.90;70.90
39099;DHT22;24844;52.380;7.018;2023-06-26T15:16:23;24.80;69.40
39099;DHT22;24844;52.380;7.018;2023-06-26T15:18:48;24.50;69.60
39099;DHT22;24844;52.380;7.018;2023-06-26T15:21:14;24.20;70.50
39099;DHT22;24844;52.380;7.018;2023-06-26T15:23:40;24.30;70.70
39099;DHT22;24844;52.380;7.018;2023-06-26T15:26:05;24.10;71.30
39099;DHT22;24844;52.380;7.018;2023-06-26T15:28:31;24.30;71.00
39099;DHT22;24844;52.380;7.018;2023-06-26T15:30:57;24.40;72.60
39099;DHT22;24844;52.380;7.018;2023-06-26T15:33:22;24.30;72.70
39099;DHT22;24844;52.380;7.018;2023-06-26T15:35:48;24.50;73.50
39099;DHT22;24844;52.380;7.018;2023-06-26T15:38:14;24.70;72.70